sensor_id;sensor_type;location;lat;lon;timestamp;P1;durP1;ratioP1;P2;durP2;ratioP2
17648;SDS011;8943;51.110;-4.158;2022-07-21T00:01:06;6.80;;;1.93;;
17648;SDS011;8943;51.110;-4.158;2022-07-21T00:03:35;6.70;;;1.63;;
17648;SDS011;8943;51.110;-4.158;2022-07-21T00:06:04;7.53;;;2.07;;
17648;SDS011;8943;51.110;-4.158;2022-07-21T00:08:35;6.37;;;1.33;;
17648;SDS011;8943;51.110;-4.158;2022-07-21T00:11:05;5.53;;;1.30;;
17648;SDS011;8943;51.110;-4.158;2022-07-21T00:13:38;5.00;;;1.60;;
17648;SDS011;8943;51.110;-4.158;2022-07-21T00:16:21;3.50;;;1.27;;
17648;SDS011;8943;51.110;-4.158;2022-07-21T00:19:03;5.63;;;1.50;;
17648;SDS011;8943;51.110;-4.158;2022-07-21T00:21:33;6.10;;;1.63;;
17648;SDS011;8943;51.110;-4.158;2022-07-21T00:24:04;4.40;;;1.57;;
17648;SDS011;8943;51.110;-4.158;2022-07-21T00:26:33;4.57;;;1.43;;
17648;SDS011;8943;51.110;-4.158;2022-07-21T00:29:03;9.20;;;1.90;;
17648;SDS011;8943;51.110;-4.158;2022-07-21T00:31:32;4.17;;;1.40;;
17648;SDS011;8943;51.110;-4.158;2022-07-21T00:34:01;5.43;;;1.90;;
17648;SDS011;8943;51.110;-4.158;2022-07-21T00:36:29;11.20;;;2.03;;
17648;SDS011;8943;51.110;-4.158;2022-07-21T00:38:58;2.27;;;1.13;;
17648;SDS011;8943;51.110;-4.158;2022-07-21T00:41:29;7.33;;;2.17;;
17648;SDS011;8943;51.110;-4.158;2022-07-21T00:43:58;6.10;;;1.37;;
17648;SDS011;8943;51.110;-4.158;2022-07-21T00:46:32;7.03;;;1.80;;
17648;SDS011;8943;51.110;-4.158;2022-07-21T00:49:00;7.40;;;1.37;;
17648;SDS011;8943;51.110;-4.158;2022-07-21T00:51:29;6.57;;;1.80;;
17648;SDS011;8943;51.110;-4.158;2022-07-21T00:54:01;5.57;;;1.73;;
17648;SDS011;8943;51.110;-4.158;2022-07-21T00:56:32;9.47;;;1.80;;
17648;SDS011;8943;51.110;-4.158;2022-07-21T00:59:02;5.40;;;1.57;;
17648;SDS011;8943;51.110;-4.158;2022-07-21T01:01:32;8.23;;;1.57;;
17648;SDS011;8943;51.110;-4.158;2022-07-21T01:04:01;3.97;;;1.23;;
17648;SDS011;8943;51.110;-4.158;2022-07-21T01:06:30;6.17;;;1.60;;
17648;SDS011;8943;51.110;-4.158;2022-07-21T01:08:59;5.13;;;1.70;;
17648;SDS011;8943;51.110;-4.158;2022-07-21T01:11:37;5.13;;;1.93;;
17648;SDS011;8943;51.110;-4.158;2022-07-21T01:14:16;8.63;;;1.60;;
17648;SDS011;8943;51.110;-4.158;2022-07-21T01:16:45;9.83;;;1.40;;
17648;SDS011;8943;51.110;-4.158;2022-07-21T01:19:16;4.23;;;1.60;;
17648;SDS011;8943;51.110;-4.158;2022-07-21T01:21:52;11.17;;;1.70;;
17648;SDS011;8943;51.110;-4.158;2022-07-21T01:24:21;5.03;;;1.70;;
17648;SDS011;8943;51.110;-4.158;2022-07-21T01:26:51;5.60;;;1.63;;
17648;SDS011;8943;51.110;-4.158;2022-07-21T01:29:21;5.17;;;2.23;;
17648;SDS011;8943;51.110;-4.158;2022-07-21T01:31:50;4.80;;;1.47;;
17648;SDS011;8943;51.110;-4.158;2022-07-21T01:34:20;7.13;;;1.70;;
17648;SDS011;8943;51.110;-4.158;2022-07-21T01:36:59;3.77;;;1.37;;
17648;SDS011;8943;51.110;-4.158;2022-07-21T01:39:29;5.03;;;1.60;;
17648;SDS011;8943;51.110;-4.158;2022-07-21T01:42:15;7.13;;;1.60;;
17648;SDS011;8943;51.110;-4.158;2022-07-21T01:44:44;3.97;;;1.50;;
17648;SDS011;8943;51.110;-4.158;2022-07-21T01:47:13;8.53;;;2.00;;
17648;SDS011;8943;51.110;-4.158;2022-07-21T01:49:44;7.07;;;2.13;;
17648;SDS011;8943;51.110;-4.158;2022-07-21T01:54:59;5.17;;;1.73;;
17648;SDS011;8943;51.110;-4.158;2022-07-21T01:57:30;6.40;;;2.00;;
17648;SDS011;8943;51.110;-4.158;2022-07-21T02:00:00;8.17;;;2.23;;
17648;SDS011;8943;51.110;-4.158;2022-07-21T02:02:30;8.17;;;1.77;;
17648;SDS011;8943;51.110;-4.158;2022-07-21T02:04:59;6.57;;;2.03;;
17648;SDS011;8943;51.110;-4.158;2022-07-21T02:07:30;5.20;;;1.67;;
17648;SDS011;8943;51.110;-4.158;2022-07-21T02:10:01;9.33;;;2.17;;
17648;SDS011;8943;51.110;-4.158;2022-07-21T02:12:30;6.70;;;1.90;;
17648;SDS011;8943;51.110;-4.158;2022-07-21T02:15:13;5.00;;;2.00;;
17648;SDS011;8943;51.110;-4.158;2022-07-21T02:17:50;12.03;;;2.17;;
17648;SDS011;8943;51.110;-4.158;2022-07-21T02:20:20;7.87;;;2.43;;
17648;SDS011;8943;51.110;-4.158;2022-07-21T02:22:52;6.67;;;2.00;;
17648;SDS011;8943;51.110;-4.158;2022-07-21T02:25:22;6.53;;;2.00;;
17648;SDS011;8943;51.110;-4.158;2022-07-21T02:27:51;12.33;;;2.50;;
17648;SDS011;8943;51.110;-4.158;2022-07-21T02:30:21;7.90;;;1.80;;
17648;SDS011;8943;51.110;-4.158;2022-07-21T02:32:55;6.20;;;2.00;;
17648;SDS011;8943;51.110;-4.158;2022-07-21T02:35:24;8.07;;;1.90;;
17648;SDS011;8943;51.110;-4.158;2022-07-21T02:37:54;6.73;;;1.93;;
17648;SDS011;8943;51.110;-4.158;2022-07-21T02:40:25;6.00;;;2.03;;
17648;SDS011;8943;51.110;-4.158;2022-07-21T02:43:00;5.00;;;1.70;;
17648;SDS011;8943;51.110;-4.158;2022-07-21T02:45:57;8.27;;;1.70;;
17648;SDS011;8943;51.110;-4.158;2022-07-21T02:48:27;7.00;;;2.00;;
17648;SDS011;8943;51.110;-4.158;2022-07-21T02:51:01;9.70;;;1.90;;
17648;SDS011;8943;51.110;-4.158;2022-07-21T02:53:58;3.53;;;1.30;;
17648;SDS011;8943;51.110;-4.158;2022-07-21T02:59:19;8.60;;;1.70;;
17648;SDS011;8943;51.110;-4.158;2022-07-21T03:01:48;5.87;;;1.93;;
17648;SDS011;8943;51.110;-4.158;2022-07-21T03:04:22;4.97;;;2.00;;
17648;SDS011;8943;51.110;-4.158;2022-07-21T03:06:54;4.47;;;1.53;;
17648;SDS011;8943;51.110;-4.158;2022-07-21T03:09:26;6.20;;;1.50;;
17648;SDS011;8943;51.110;-4.158;2022-07-21T03:11:56;8.57;;;1.93;;
17648;SDS011;8943;51.110;-4.158;2022-07-21T03:14:25;5.07;;;1.73;;
17648;SDS011;8943;51.110;-4.158;2022-07-21T03:16:54;4.87;;;1.50;;
17648;SDS011;8943;51.110;-4.158;2022-07-21T03:19:25;4.97;;;1.83;;
17648;SDS011;8943;51.110;-4.158;2022-07-21T03:22:09;4.23;;;1.30;;
17648;SDS011;8943;51.110;-4.158;2022-07-21T03:24:40;3.83;;;1.60;;
17648;SDS011;8943;51.110;-4.158;2022-07-21T03:27:10;9.00;;;1.73;;
17648;SDS011;8943;51.110;-4.158;2022-07-21T03:29:39;5.17;;;1.60;;
17648;SDS011;8943;51.110;-4.158;2022-07-21T03:32:08;4.97;;;1.37;;
17648;SDS011;8943;51.110;-4.158;2022-07-21T03:34:37;5.77;;;1.43;;
17648;SDS011;8943;51.110;-4.158;2022-07-21T03:37:12;3.67;;;1.47;;
17648;SDS011;8943;51.110;-4.158;2022-07-21T03:39:45;2.87;;;1.17;;
17648;SDS011;8943;51.110;-4.158;2022-07-21T03:42:16;6.97;;;1.60;;
17648;SDS011;8943;51.110;-4.158;2022-07-21T03:44:47;3.53;;;1.60;;
17648;SDS011;8943;51.110;-4.158;2022-07-21T03:47:17;3.93;;;1.40;;
17648;SDS011;8943;51.110;-4.158;2022-07-21T03:49:55;3.23;;;1.50;;
17648;SDS011;8943;51.110;-4.158;2022-07-21T03:52:24;11.27;;;1.63;;
17648;SDS011;8943;51.110;-4.158;2022-07-21T03:55:03;4.73;;;1.20;;
17648;SDS011;8943;51.110;-4.158;2022-07-21T03:57:42;6.00;;;1.53;;
17648;SDS011;8943;51.110;-4.158;2022-07-21T04:00:18;5.90;;;2.03;;
17648;SDS011;8943;51.110;-4.158;2022-07-21T04:02:52;4.80;;;1.40;;
17648;SDS011;8943;51.110;-4.158;2022-07-21T04:05:23;3.53;;;1.10;;
17648;SDS011;8943;51.110;-4.158;2022-07-21T04:08:03;5.83;;;1.50;;
17648;SDS011;8943;51.110;-4.158;2022-07-21T04:10:37;4.60;;;1.40;;
17648;SDS011;8943;51.110;-4.158;2022-07-21T04:13:08;2.70;;;1.50;;
17648;SDS011;8943;51.110;-4.158;2022-07-21T04:15:39;4.20;;;1.60;;
17648;SDS011;8943;51.110;-4.158;2022-07-21T04:18:11;3.63;;;1.50;;
17648;SDS011;8943;51.110;-4.158;2022-07-21T04:20:47;5.13;;;1.63;;
17648;SDS011;8943;51.110;-4.158;2022-07-21T04:23:29;3.53;;;1.53;;
17648;SDS011;8943;51.110;-4.158;2022-07-21T04:26:04;6.90;;;1.53;;
17648;SDS011;8943;51.110;-4.158;2022-07-21T04:28:35;6.37;;;2.17;;
17648;SDS011;8943;51.110;-4.158;2022-07-21T04:31:07;5.73;;;1.43;;
17648;SDS011;8943;51.110;-4.158;2022-07-21T04:33:59;4.23;;;1.30;;
17648;SDS011;8943;51.110;-4.158;2022-07-21T04:37:03;4.77;;;1.50;;
17648;SDS011;8943;51.110;-4.158;2022-07-21T04:39:33;6.97;;;1.60;;
17648;SDS011;8943;51.110;-4.158;2022-07-21T04:47:44;3.13;;;1.17;;
17648;SDS011;8943;51.110;-4.158;2022-07-21T04:50:18;2.57;;;1.13;;
17648;SDS011;8943;51.110;-4.158;2022-07-21T04:52:51;3.13;;;0.97;;
17648;SDS011;8943;51.110;-4.158;2022-07-21T04:55:28;2.43;;;0.90;;
17648;SDS011;8943;51.110;-4.158;2022-07-21T05:04:59;5.07;;;1.40;;
17648;SDS011;8943;51.110;-4.158;2022-07-21T05:07:33;4.60;;;1.17;;
17648;SDS011;8943;51.110;-4.158;2022-07-21T05:10:14;5.27;;;0.90;;
17648;SDS011;8943;51.110;-4.158;2022-07-21T05:13:04;2.40;;;1.00;;
17648;SDS011;8943;51.110;-4.158;2022-07-21T05:15:55;5.43;;;1.10;;
17648;SDS011;8943;51.110;-4.158;2022-07-21T05:22:10;4.73;;;1.43;;
17648;SDS011;8943;51.110;-4.158;2022-07-21T05:24:56;5.60;;;1.00;;
17648;SDS011;8943;51.110;-4.158;2022-07-21T05:27:32;6.93;;;1.07;;
17648;SDS011;8943;51.110;-4.158;2022-07-21T05:30:20;2.47;;;0.87;;
17648;SDS011;8943;51.110;-4.158;2022-07-21T05:33:14;4.63;;;1.00;;
17648;SDS011;8943;51.110;-4.158;2022-07-21T05:36:13;7.03;;;1.10;;
17648;SDS011;8943;51.110;-4.158;2022-07-21T05:42:34;2.97;;;1.00;;
17648;SDS011;8943;51.110;-4.158;2022-07-21T05:45:25;4.63;;;1.00;;
17648;SDS011;8943;51.110;-4.158;2022-07-21T05:48:31;3.97;;;1.03;;
17648;SDS011;8943;51.110;-4.158;2022-07-21T05:51:36;1.73;;;0.70;;
17648;SDS011;8943;51.110;-4.158;2022-07-21T05:54:07;3.77;;;1.30;;
17648;SDS011;8943;51.110;-4.158;2022-07-21T05:56:39;6.07;;;1.73;;
17648;SDS011;8943;51.110;-4.158;2022-07-21T05:59:25;2.83;;;0.93;;
17648;SDS011;8943;51.110;-4.158;2022-07-21T06:01:57;3.37;;;1.00;;
17648;SDS011;8943;51.110;-4.158;2022-07-21T06:04:26;5.23;;;1.20;;
17648;SDS011;8943;51.110;-4.158;2022-07-21T06:06:57;3.47;;;1.23;;
17648;SDS011;8943;51.110;-4.158;2022-07-21T06:09:30;4.83;;;1.37;;
17648;SDS011;8943;51.110;-4.158;2022-07-21T06:11:59;2.93;;;0.90;;
17648;SDS011;8943;51.110;-4.158;2022-07-21T06:14:31;5.17;;;0.90;;
17648;SDS011;8943;51.110;-4.158;2022-07-21T06:17:02;3.27;;;0.80;;
17648;SDS011;8943;51.110;-4.158;2022-07-21T06:19:30;4.20;;;0.97;;
17648;SDS011;8943;51.110;-4.158;2022-07-21T06:22:01;3.47;;;1.00;;
17648;SDS011;8943;51.110;-4.158;2022-07-21T06:24:36;2.17;;;0.90;;
17648;SDS011;8943;51.110;-4.158;2022-07-21T06:27:07;4.47;;;1.03;;
17648;SDS011;8943;51.110;-4.158;2022-07-21T06:29:53;6.47;;;1.00;;
17648;SDS011;8943;51.110;-4.158;2022-07-21T06:32:36;3.37;;;1.10;;
17648;SDS011;8943;51.110;-4.158;2022-07-21T06:35:23;1.53;;;0.90;;
17648;SDS011;8943;51.110;-4.158;2022-07-21T06:37:55;2.67;;;0.93;;
17648;SDS011;8943;51.110;-4.158;2022-07-21T06:40:58;2.87;;;0.90;;
17648;SDS011;8943;51.110;-4.158;2022-07-21T06:43:27;6.00;;;1.13;;
17648;SDS011;8943;51.110;-4.158;2022-07-21T06:45:56;4.73;;;1.00;;
17648;SDS011;8943;51.110;-4.158;2022-07-21T06:48:25;3.97;;;1.30;;
17648;SDS011;8943;51.110;-4.158;2022-07-21T06:50:59;3.40;;;1.20;;
17648;SDS011;8943;51.110;-4.158;2022-07-21T06:53:29;6.27;;;1.10;;
17648;SDS011;8943;51.110;-4.158;2022-07-21T06:56:00;5.03;;;1.40;;
17648;SDS011;8943;51.110;-4.158;2022-07-21T06:58:29;5.27;;;1.40;;
17648;SDS011;8943;51.110;-4.158;2022-07-21T07:01:06;2.50;;;1.10;;
17648;SDS011;8943;51.110;-4.158;2022-07-21T07:03:40;3.17;;;1.10;;
17648;SDS011;8943;51.110;-4.158;2022-07-21T07:06:11;4.53;;;0.80;;
17648;SDS011;8943;51.110;-4.158;2022-07-21T07:08:43;2.90;;;0.97;;
17648;SDS011;8943;51.110;-4.158;2022-07-21T07:11:14;2.83;;;0.97;;
17648;SDS011;8943;51.110;-4.158;2022-07-21T07:13:43;3.47;;;1.07;;
17648;SDS011;8943;51.110;-4.158;2022-07-21T07:16:23;6.50;;;2.30;;
17648;SDS011;8943;51.110;-4.158;2022-07-21T07:18:53;6.83;;;1.50;;
17648;SDS011;8943;51.110;-4.158;2022-07-21T07:21:23;2.40;;;0.90;;
17648;SDS011;8943;51.110;-4.158;2022-07-21T07:23:52;2.27;;;0.83;;
17648;SDS011;8943;51.110;-4.158;2022-07-21T07:26:29;2.63;;;0.90;;
17648;SDS011;8943;51.110;-4.158;2022-07-21T07:28:59;3.53;;;0.90;;
17648;SDS011;8943;51.110;-4.158;2022-07-21T07:31:42;1.07;;;0.70;;
17648;SDS011;8943;51.110;-4.158;2022-07-21T07:34:10;1.90;;;0.70;;
17648;SDS011;8943;51.110;-4.158;2022-07-21T07:36:48;2.83;;;1.00;;
17648;SDS011;8943;51.110;-4.158;2022-07-21T07:39:22;2.50;;;0.87;;
17648;SDS011;8943;51.110;-4.158;2022-07-21T07:42:07;2.70;;;0.80;;
17648;SDS011;8943;51.110;-4.158;2022-07-21T07:44:36;3.57;;;1.10;;
17648;SDS011;8943;51.110;-4.158;2022-07-21T07:47:07;2.57;;;0.90;;
17648;SDS011;8943;51.110;-4.158;2022-07-21T07:49:40;3.30;;;1.27;;
17648;SDS011;8943;51.110;-4.158;2022-07-21T07:52:12;3.33;;;1.10;;
17648;SDS011;8943;51.110;-4.158;2022-07-21T07:54:58;3.63;;;0.93;;
17648;SDS011;8943;51.110;-4.158;2022-07-21T07:57:35;4.00;;;1.37;;
17648;SDS011;8943;51.110;-4.158;2022-07-21T08:00:05;5.30;;;1.23;;
17648;SDS011;8943;51.110;-4.158;2022-07-21T08:02:58;1.77;;;0.90;;
17648;SDS011;8943;51.110;-4.158;2022-07-21T08:05:29;2.87;;;0.90;;
17648;SDS011;8943;51.110;-4.158;2022-07-21T08:07:59;2.03;;;0.80;;
17648;SDS011;8943;51.110;-4.158;2022-07-21T08:10:28;5.57;;;1.00;;
17648;SDS011;8943;51.110;-4.158;2022-07-21T08:13:10;3.90;;;1.00;;
17648;SDS011;8943;51.110;-4.158;2022-07-21T08:15:39;4.07;;;0.97;;
17648;SDS011;8943;51.110;-4.158;2022-07-21T08:18:08;1.80;;;0.90;;
17648;SDS011;8943;51.110;-4.158;2022-07-21T08:20:38;2.27;;;0.70;;
17648;SDS011;8943;51.110;-4.158;2022-07-21T08:23:07;2.30;;;0.80;;
17648;SDS011;8943;51.110;-4.158;2022-07-21T08:25:37;4.10;;;1.03;;
17648;SDS011;8943;51.110;-4.158;2022-07-21T08:28:07;2.87;;;1.20;;
17648;SDS011;8943;51.110;-4.158;2022-07-21T08:30:40;1.73;;;0.70;;
17648;SDS011;8943;51.110;-4.158;2022-07-21T08:33:14;2.70;;;0.90;;
17648;SDS011;8943;51.110;-4.158;2022-07-21T08:35:44;2.43;;;0.90;;
17648;SDS011;8943;51.110;-4.158;2022-07-21T08:38:21;2.80;;;1.00;;
17648;SDS011;8943;51.110;-4.158;2022-07-21T08:40:50;7.57;;;1.00;;
17648;SDS011;8943;51.110;-4.158;2022-07-21T08:43:20;3.53;;;0.80;;
17648;SDS011;8943;51.110;-4.158;2022-07-21T08:45:55;2.87;;;0.87;;
17648;SDS011;8943;51.110;-4.158;2022-07-21T08:55:12;3.13;;;0.80;;
17648;SDS011;8943;51.110;-4.158;2022-07-21T08:57:42;1.77;;;0.60;;
17648;SDS011;8943;51.110;-4.158;2022-07-21T09:00:13;1.53;;;0.90;;
17648;SDS011;8943;51.110;-4.158;2022-07-21T09:02:46;1.90;;;1.00;;
17648;SDS011;8943;51.110;-4.158;2022-07-21T09:05:28;3.03;;;0.90;;
17648;SDS011;8943;51.110;-4.158;2022-07-21T09:08:10;2.83;;;0.77;;
17648;SDS011;8943;51.110;-4.158;2022-07-21T09:11:08;2.77;;;0.80;;
17648;SDS011;8943;51.110;-4.158;2022-07-21T09:13:47;1.80;;;0.80;;
17648;SDS011;8943;51.110;-4.158;2022-07-21T09:16:31;2.50;;;1.00;;
17648;SDS011;8943;51.110;-4.158;2022-07-21T09:19:14;4.43;;;1.20;;
17648;SDS011;8943;51.110;-4.158;2022-07-21T09:21:46;7.03;;;0.90;;
17648;SDS011;8943;51.110;-4.158;2022-07-21T09:24:17;2.50;;;0.73;;
17648;SDS011;8943;51.110;-4.158;2022-07-21T09:27:06;4.33;;;1.10;;
17648;SDS011;8943;51.110;-4.158;2022-07-21T09:29:38;5.00;;;1.27;;
17648;SDS011;8943;51.110;-4.158;2022-07-21T09:32:13;3.20;;;0.90;;
17648;SDS011;8943;51.110;-4.158;2022-07-21T09:34:44;3.67;;;0.90;;
17648;SDS011;8943;51.110;-4.158;2022-07-21T09:37:19;2.13;;;0.83;;
17648;SDS011;8943;51.110;-4.158;2022-07-21T09:39:50;3.80;;;0.70;;
17648;SDS011;8943;51.110;-4.158;2022-07-21T09:42:27;3.03;;;0.90;;
17648;SDS011;8943;51.110;-4.158;2022-07-21T09:44:58;3.03;;;1.00;;
17648;SDS011;8943;51.110;-4.158;2022-07-21T09:47:29;4.37;;;1.30;;
17648;SDS011;8943;51.110;-4.158;2022-07-21T09:50:02;3.63;;;1.13;;
17648;SDS011;8943;51.110;-4.158;2022-07-21T09:52:55;3.67;;;1.37;;
17648;SDS011;8943;51.110;-4.158;2022-07-21T09:55:49;3.40;;;1.03;;
17648;SDS011;8943;51.110;-4.158;2022-07-21T09:58:18;4.27;;;1.10;;
17648;SDS011;8943;51.110;-4.158;2022-07-21T10:00:48;2.80;;;0.93;;
17648;SDS011;8943;51.110;-4.158;2022-07-21T10:03:28;2.00;;;0.90;;
17648;SDS011;8943;51.110;-4.158;2022-07-21T10:06:02;3.20;;;1.10;;
17648;SDS011;8943;51.110;-4.158;2022-07-21T10:08:32;3.93;;;1.17;;
17648;SDS011;8943;51.110;-4.158;2022-07-21T10:11:07;3.40;;;0.80;;
17648;SDS011;8943;51.110;-4.158;2022-07-21T10:13:44;2.90;;;1.30;;
17648;SDS011;8943;51.110;-4.158;2022-07-21T10:16:14;2.50;;;1.10;;
17648;SDS011;8943;51.110;-4.158;2022-07-21T10:18:52;2.97;;;1.23;;
17648;SDS011;8943;51.110;-4.158;2022-07-21T10:21:46;4.17;;;1.07;;
17648;SDS011;8943;51.110;-4.158;2022-07-21T10:24:30;3.37;;;1.13;;
17648;SDS011;8943;51.110;-4.158;2022-07-21T10:27:14;3.17;;;0.93;;
17648;SDS011;8943;51.110;-4.158;2022-07-21T10:29:58;4.10;;;0.90;;
17648;SDS011;8943;51.110;-4.158;2022-07-21T10:32:29;3.73;;;1.20;;
17648;SDS011;8943;51.110;-4.158;2022-07-21T10:35:01;9.77;;;1.50;;
17648;SDS011;8943;51.110;-4.158;2022-07-21T10:37:52;2.53;;;1.00;;
17648;SDS011;8943;51.110;-4.158;2022-07-21T10:40:34;1.67;;;1.07;;
17648;SDS011;8943;51.110;-4.158;2022-07-21T10:49:53;3.10;;;1.00;;
17648;SDS011;8943;51.110;-4.158;2022-07-21T10:55:30;7.47;;;1.30;;
17648;SDS011;8943;51.110;-4.158;2022-07-21T10:58:16;4.33;;;0.90;;
17648;SDS011;8943;51.110;-4.158;2022-07-21T11:00:53;4.50;;;1.20;;
17648;SDS011;8943;51.110;-4.158;2022-07-21T11:03:26;4.07;;;1.47;;
17648;SDS011;8943;51.110;-4.158;2022-07-21T11:06:17;1.93;;;1.13;;
17648;SDS011;8943;51.110;-4.158;2022-07-21T11:09:06;5.63;;;1.50;;
17648;SDS011;8943;51.110;-4.158;2022-07-21T11:11:37;9.13;;;1.27;;
17648;SDS011;8943;51.110;-4.158;2022-07-21T11:14:10;3.87;;;1.30;;
17648;SDS011;8943;51.110;-4.158;2022-07-21T11:19:46;4.57;;;1.30;;
17648;SDS011;8943;51.110;-4.158;2022-07-21T11:22:17;2.53;;;1.10;;
17648;SDS011;8943;51.110;-4.158;2022-07-21T11:24:56;2.40;;;1.03;;
17648;SDS011;8943;51.110;-4.158;2022-07-21T11:27:28;4.57;;;1.40;;
17648;SDS011;8943;51.110;-4.158;2022-07-21T11:29:59;4.67;;;1.17;;
17648;SDS011;8943;51.110;-4.158;2022-07-21T11:32:30;8.67;;;1.90;;
17648;SDS011;8943;51.110;-4.158;2022-07-21T11:34:59;7.10;;;1.17;;
17648;SDS011;8943;51.110;-4.158;2022-07-21T11:37:30;5.40;;;1.13;;
17648;SDS011;8943;51.110;-4.158;2022-07-21T11:40:08;4.23;;;1.20;;
17648;SDS011;8943;51.110;-4.158;2022-07-21T11:42:57;11.57;;;2.10;;
17648;SDS011;8943;51.110;-4.158;2022-07-21T11:45:26;6.43;;;1.47;;
17648;SDS011;8943;51.110;-4.158;2022-07-21T11:47:55;5.90;;;1.33;;
17648;SDS011;8943;51.110;-4.158;2022-07-21T11:50:27;8.77;;;1.30;;
17648;SDS011;8943;51.110;-4.158;2022-07-21T11:52:58;4.30;;;1.30;;
17648;SDS011;8943;51.110;-4.158;2022-07-21T11:55:41;7.20;;;1.87;;
17648;SDS011;8943;51.110;-4.158;2022-07-21T11:58:13;7.10;;;1.50;;
17648;SDS011;8943;51.110;-4.158;2022-07-21T12:01:03;3.43;;;1.33;;
17648;SDS011;8943;51.110;-4.158;2022-07-21T12:03:48;3.63;;;1.10;;
17648;SDS011;8943;51.110;-4.158;2022-07-21T12:06:18;3.30;;;1.37;;
17648;SDS011;8943;51.110;-4.158;2022-07-21T12:08:56;6.70;;;1.50;;
17648;SDS011;8943;51.110;-4.158;2022-07-21T12:14:46;4.10;;;1.10;;
17648;SDS011;8943;51.110;-4.158;2022-07-21T12:17:40;5.93;;;1.00;;
17648;SDS011;8943;51.110;-4.158;2022-07-21T12:20:23;2.43;;;0.93;;
17648;SDS011;8943;51.110;-4.158;2022-07-21T12:23:28;3.33;;;1.00;;
17648;SDS011;8943;51.110;-4.158;2022-07-21T12:26:01;3.53;;;1.20;;
17648;SDS011;8943;51.110;-4.158;2022-07-21T12:28:43;2.87;;;1.00;;
17648;SDS011;8943;51.110;-4.158;2022-07-21T12:31:16;4.20;;;0.90;;
17648;SDS011;8943;51.110;-4.158;2022-07-21T12:33:48;4.57;;;1.10;;
17648;SDS011;8943;51.110;-4.158;2022-07-21T12:36:37;5.17;;;1.00;;
17648;SDS011;8943;51.110;-4.158;2022-07-21T12:39:14;6.63;;;1.27;;
17648;SDS011;8943;51.110;-4.158;2022-07-21T12:42:01;3.07;;;0.93;;
17648;SDS011;8943;51.110;-4.158;2022-07-21T12:44:32;4.40;;;0.90;;
17648;SDS011;8943;51.110;-4.158;2022-07-21T12:47:16;7.00;;;1.13;;
17648;SDS011;8943;51.110;-4.158;2022-07-21T12:52:44;3.20;;;1.20;;
17648;SDS011;8943;51.110;-4.158;2022-07-21T12:55:15;4.70;;;1.20;;
17648;SDS011;8943;51.110;-4.158;2022-07-21T12:58:06;3.20;;;0.97;;
17648;SDS011;8943;51.110;-4.158;2022-07-21T13:00:38;2.83;;;0.80;;
17648;SDS011;8943;51.110;-4.158;2022-07-21T13:03:10;2.30;;;1.47;;
17648;SDS011;8943;51.110;-4.158;2022-07-21T13:05:39;4.53;;;1.20;;
17648;SDS011;8943;51.110;-4.158;2022-07-21T13:08:08;3.17;;;1.00;;
17648;SDS011;8943;51.110;-4.158;2022-07-21T13:10:38;8.63;;;1.50;;
17648;SDS011;8943;51.110;-4.158;2022-07-21T13:13:06;2.00;;;0.67;;
17648;SDS011;8943;51.110;-4.158;2022-07-21T13:15:35;5.97;;;1.30;;
17648;SDS011;8943;51.110;-4.158;2022-07-21T13:18:05;3.60;;;1.27;;
17648;SDS011;8943;51.110;-4.158;2022-07-21T13:20:36;3.77;;;0.90;;
17648;SDS011;8943;51.110;-4.158;2022-07-21T13:23:04;2.73;;;1.00;;
17648;SDS011;8943;51.110;-4.158;2022-07-21T13:25:37;3.90;;;0.90;;
17648;SDS011;8943;51.110;-4.158;2022-07-21T13:28:06;4.50;;;1.27;;
17648;SDS011;8943;51.110;-4.158;2022-07-21T13:30:35;2.63;;;1.00;;
17648;SDS011;8943;51.110;-4.158;2022-07-21T13:33:08;5.10;;;1.20;;
17648;SDS011;8943;51.110;-4.158;2022-07-21T13:35:41;3.87;;;1.40;;
17648;SDS011;8943;51.110;-4.158;2022-07-21T13:38:10;3.73;;;1.13;;
17648;SDS011;8943;51.110;-4.158;2022-07-21T13:40:38;4.60;;;1.40;;
17648;SDS011;8943;51.110;-4.158;2022-07-21T13:43:27;4.13;;;0.93;;
17648;SDS011;8943;51.110;-4.158;2022-07-21T13:46:03;5.20;;;1.00;;
17648;SDS011;8943;51.110;-4.158;2022-07-21T13:48:33;3.30;;;0.97;;
17648;SDS011;8943;51.110;-4.158;2022-07-21T13:51:16;2.80;;;1.03;;
17648;SDS011;8943;51.110;-4.158;2022-07-21T13:54:29;7.67;;;1.40;;
17648;SDS011;8943;51.110;-4.158;2022-07-21T13:56:59;2.65;;;0.80;;
17648;SDS011;8943;51.110;-4.158;2022-07-21T13:59:28;2.95;;;0.93;;
17648;SDS011;8943;51.110;-4.158;2022-07-21T14:01:56;5.30;;;0.80;;
17648;SDS011;8943;51.110;-4.158;2022-07-21T14:04:29;3.77;;;1.13;;
17648;SDS011;8943;51.110;-4.158;2022-07-21T14:07:02;4.37;;;1.20;;
17648;SDS011;8943;51.110;-4.158;2022-07-21T14:09:30;1.50;;;0.80;;
17648;SDS011;8943;51.110;-4.158;2022-07-21T14:12:01;1.80;;;1.07;;
17648;SDS011;8943;51.110;-4.158;2022-07-21T14:14:29;4.37;;;1.20;;
17648;SDS011;8943;51.110;-4.158;2022-07-21T14:17:01;3.70;;;1.00;;
17648;SDS011;8943;51.110;-4.158;2022-07-21T14:19:30;5.37;;;1.17;;
17648;SDS011;8943;51.110;-4.158;2022-07-21T14:21:59;1.83;;;0.70;;
17648;SDS011;8943;51.110;-4.158;2022-07-21T14:24:38;4.10;;;1.20;;
17648;SDS011;8943;51.110;-4.158;2022-07-21T14:27:24;5.82;;;1.00;;
17648;SDS011;8943;51.110;-4.158;2022-07-21T14:29:54;3.47;;;0.85;;
17648;SDS011;8943;51.110;-4.158;2022-07-21T14:32:29;3.07;;;1.00;;
17648;SDS011;8943;51.110;-4.158;2022-07-21T14:35:01;3.03;;;0.90;;
17648;SDS011;8943;51.110;-4.158;2022-07-21T14:37:30;3.08;;;0.70;;
17648;SDS011;8943;51.110;-4.158;2022-07-21T14:40:04;1.92;;;0.90;;
17648;SDS011;8943;51.110;-4.158;2022-07-21T14:42:35;2.30;;;0.77;;
17648;SDS011;8943;51.110;-4.158;2022-07-21T14:45:04;5.00;;;1.10;;
17648;SDS011;8943;51.110;-4.158;2022-07-21T14:47:39;2.35;;;0.90;;
17648;SDS011;8943;51.110;-4.158;2022-07-21T14:50:13;3.80;;;1.00;;
17648;SDS011;8943;51.110;-4.158;2022-07-21T14:52:49;2.80;;;0.88;;
17648;SDS011;8943;51.110;-4.158;2022-07-21T14:55:20;3.08;;;1.20;;
17648;SDS011;8943;51.110;-4.158;2022-07-21T14:57:53;3.75;;;0.90;;
17648;SDS011;8943;51.110;-4.158;2022-07-21T15:00:35;1.13;;;0.60;;
17648;SDS011;8943;51.110;-4.158;2022-07-21T15:03:07;2.97;;;1.00;;
17648;SDS011;8943;51.110;-4.158;2022-07-21T15:05:35;2.88;;;1.05;;
17648;SDS011;8943;51.110;-4.158;2022-07-21T15:08:12;2.92;;;0.82;;
17648;SDS011;8943;51.110;-4.158;2022-07-21T15:10:42;1.65;;;0.68;;
17648;SDS011;8943;51.110;-4.158;2022-07-21T15:13:13;1.75;;;0.80;;
17648;SDS011;8943;51.110;-4.158;2022-07-21T15:15:45;4.68;;;0.80;;
17648;SDS011;8943;51.110;-4.158;2022-07-21T15:18:24;2.47;;;0.90;;
17648;SDS011;8943;51.110;-4.158;2022-07-21T15:20:53;4.88;;;0.90;;
17648;SDS011;8943;51.110;-4.158;2022-07-21T15:23:22;3.28;;;1.00;;
17648;SDS011;8943;51.110;-4.158;2022-07-21T15:26:00;2.22;;;0.90;;
17648;SDS011;8943;51.110;-4.158;2022-07-21T15:28:33;1.83;;;0.70;;
17648;SDS011;8943;51.110;-4.158;2022-07-21T15:31:05;1.90;;;0.68;;
17648;SDS011;8943;51.110;-4.158;2022-07-21T15:33:33;3.17;;;1.13;;
17648;SDS011;8943;51.110;-4.158;2022-07-21T15:36:06;6.22;;;0.85;;
17648;SDS011;8943;51.110;-4.158;2022-07-21T15:38:39;4.10;;;1.25;;
17648;SDS011;8943;51.110;-4.158;2022-07-21T15:41:09;3.90;;;0.80;;
17648;SDS011;8943;51.110;-4.158;2022-07-21T15:44:02;2.60;;;0.70;;
17648;SDS011;8943;51.110;-4.158;2022-07-21T15:46:35;2.17;;;0.80;;
17648;SDS011;8943;51.110;-4.158;2022-07-21T15:49:05;3.25;;;1.00;;
17648;SDS011;8943;51.110;-4.158;2022-07-21T15:51:34;2.38;;;0.82;;
17648;SDS011;8943;51.110;-4.158;2022-07-21T15:54:02;1.42;;;0.73;;
17648;SDS011;8943;51.110;-4.158;2022-07-21T15:56:32;1.70;;;0.70;;
17648;SDS011;8943;51.110;-4.158;2022-07-21T15:59:00;1.33;;;0.65;;
17648;SDS011;8943;51.110;-4.158;2022-07-21T16:01:47;4.28;;;1.33;;
17648;SDS011;8943;51.110;-4.158;2022-07-21T16:04:29;1.63;;;0.65;;
17648;SDS011;8943;51.110;-4.158;2022-07-21T16:06:58;1.85;;;0.68;;
17648;SDS011;8943;51.110;-4.158;2022-07-21T16:09:27;1.48;;;0.50;;
17648;SDS011;8943;51.110;-4.158;2022-07-21T16:12:00;2.75;;;0.82;;
17648;SDS011;8943;51.110;-4.158;2022-07-21T16:14:32;1.30;;;0.65;;
17648;SDS011;8943;51.110;-4.158;2022-07-21T16:17:00;3.05;;;0.80;;
17648;SDS011;8943;51.110;-4.158;2022-07-21T16:19:29;2.58;;;0.70;;
17648;SDS011;8943;51.110;-4.158;2022-07-21T16:21:57;1.17;;;0.65;;
17648;SDS011;8943;51.110;-4.158;2022-07-21T16:24:25;1.58;;;0.77;;